Flight Track Log - Related Links

Times and Time Zones

All times are in EDT time to prevent confusion due to time zone crossing. See the N129UP flight status page for this flight to view local times or setup timezone preferences in your user account.

Time Position Orientation Groundspeed Altitude Reporting Facility
EDT Latitude Longitude Course Direction KTS MPH feet Rate Location/Type
Wed 08:45:34 PM 35.0430 -106.6180 264° West 176 203 6,700  Level FlightAware ADS-B
Wed 08:46:04 PM 35.0410 -106.6480 265° West 181 208 8,500 3,200 Climbing FlightAware ADS-B
Wed 08:46:19 PM 35.0400 -106.6660 266° West 204 235 9,100 1,950 Climbing FlightAware ADS-B
Wed 08:46:44 PM 35.0380 -106.6970 266° West 257 296 9,800 1,457 Climbing FlightAware ADS-B
Wed 08:47:29 PM 35.0370 -106.7730 269° West 330 380 10,800 2,541 Climbing FlightAware ADS-B
Wed 08:48:09 PM 35.0380 -106.8510 271° West 345 397 13,400 3,300 Climbing FlightAware ADS-B
Wed 08:48:49 PM 35.0360 -106.9310 268° West 378 435 15,200 2,894 Climbing FlightAware ADS-B
Wed 08:49:34 PM 35.0330 -107.0300 268° West 398 458 17,500 3,035 Climbing FlightAware ADS-B
Wed 08:50:14 PM 35.0290 -107.1240 267° West 415 478 19,500 2,965 Climbing FlightAware ADS-B
Wed 08:50:59 PM 35.0250 -107.2300 267° West 425 489 21,700 3,176 Climbing FlightAware ADS-B
Wed 08:51:39 PM 35.0210 -107.3250 267° West 421 484 24,000 3,000 Climbing FlightAware ADS-B
Wed 08:52:19 PM 35.0130 -107.4210 264° West 433 498 25,700 2,612 Climbing FlightAware ADS-B
Wed 08:53:04 PM 34.9980 -107.5280 260° West 443 510 27,700 2,824 Climbing FlightAware ADS-B
Wed 08:53:44 PM 34.9810 -107.6250 258° West 435 501 29,700 2,753 Climbing FlightAware ADS-B
Wed 08:54:29 PM 34.9590 -107.7340 256° West 435 501 31,600 1,624 Climbing FlightAware ADS-B
Wed 08:55:09 PM 34.9400 -107.8340 257° West 455 524 32,000 282 Climbing FlightAware ADS-B
Wed 08:55:54 PM 34.9220 -107.9440 259° West 474 545 32,000  Level FlightAware ADS-B
Wed 08:56:34 PM 34.9080 -108.0490 261° West 469 540 32,000  Level FlightAware ADS-B
Wed 08:57:09 PM 34.8980 -108.1410 262° West 472 543 32,000  Level FlightAware ADS-B
Wed 08:57:59 PM 34.8840 -108.2760 263° West 472 543 32,000  Level FlightAware ADS-B
Wed 08:58:39 PM 34.8720 -108.3810 262° West 469 540 32,000  Level FlightAware ADS-B
Wed 08:59:24 PM 34.8600 -108.4990 263° West 468 539 32,000  Level FlightAware ADS-B
Wed 09:00:04 PM 34.8490 -108.6030 263° West 469 540 32,000  Level FlightAware ADS-B
Wed 09:00:44 PM 34.8380 -108.6910 261° West 469 540 32,000  Level FlightAware ADS-B
Wed 09:01:29 PM 34.8240 -108.8250 263° West 467 537 32,000  Level FlightAware ADS-B
Wed 09:02:09 PM 34.8130 -108.9290 263° West 467 537 32,000  Level FlightAware ADS-B
Wed 09:02:54 PM 34.8010 -109.0310 262° West 467 537 32,000  Level FlightAware ADS-B
Wed 09:03:34 PM 34.7910 -109.1190 262° West 467 537 32,000  Level FlightAware ADS-B
Wed 09:04:14 PM 34.7810 -109.2080 262° West 467 537 32,000  Level FlightAware ADS-B
Wed 09:04:54 PM 34.7710 -109.2960 262° West 467 537 32,000  Level FlightAware ADS-B
Wed 09:05:34 PM 34.7600 -109.3850 261° West 467 537 32,000  Level FlightAware ADS-B
Wed 09:06:24 PM 34.7480 -109.4960 263° West 467 537 32,000  Level FlightAware ADS-B
Wed 09:07:04 PM 34.7370 -109.5840 261° West 467 537 32,000  Level FlightAware ADS-B
Wed 09:07:44 PM 34.7270 -109.6730 262° West 467 537 32,000  Level FlightAware ADS-B
Wed 09:08:24 PM 34.7170 -109.7610 262° West 467 537 32,000  Level FlightAware ADS-B
Wed 09:09:04 PM 34.7070 -109.8500 262° West 467 537 32,000  Level FlightAware ADS-B
Wed 09:09:54 PM 34.6940 -109.9600 262° West 467 537 32,000  Level FlightAware ADS-B
Wed 09:10:34 PM 34.6840 -110.0490 262° West 467 537 32,000  Level FlightAware ADS-B
Wed 09:11:14 PM 34.6730 -110.1370 261° West 467 537 32,000  Level FlightAware ADS-B
Wed 09:11:54 PM 34.6630 -110.2260 262° West 467 537 32,000 -1,829 Level FlightAware ADS-B
Wed 09:12:36 PM 34.4686 -110.5061 262° West 468 539 29,500 -3,288 Descending Albuquerque Center
Wed 09:13:38 PM 34.4178 -110.6408 245° Southwest 449 517 26,300 -1,674 Descending Albuquerque Center
Wed 09:19:39 PM 33.9780 -111.2790 245° Southwest 375 432 17,700 -1,287 Descending FlightAware ADS-B
Wed 09:20:19 PM 33.9370 -111.3300 226° Southwest 375 432 17,700  Level FlightAware ADS-B
Wed 09:20:59 PM 33.8960 -111.3810 226° Southwest 375 432 17,700  Level FlightAware ADS-B
Wed 09:21:49 PM 33.8450 -111.4450 226° Southwest 375 432 17,700 -4,400 Level FlightAware ADS-B
Wed 09:22:44 PM 33.7550 -111.5120 212° Southwest 293 337 10,000 -6,240 Descending FlightAware ADS-B
Wed 09:23:04 PM 33.7340 -111.5300 215° Southwest 271 312 9,900 -655 Descending FlightAware ADS-B
Wed 09:23:39 PM 33.6970 -111.5560 210° Southwest 264 304 9,400 -1,000 Descending FlightAware ADS-B
Wed 09:24:04 PM 33.6650 -111.5590 184° South 263 303 8,900 -1,050 Descending FlightAware ADS-B
Wed 09:24:19 PM 33.6480 -111.5610 186° South 261 300 8,700 -933 Descending FlightAware ADS-B
Wed 09:24:49 PM 33.6110 -111.5650 185° South 254 292 8,200 -800 Descending FlightAware ADS-B
Wed 09:25:04 PM 33.5960 -111.5660 183° South 250 288 8,100 -120 Descending FlightAware ADS-B
Wed 09:25:39 PM 33.5560 -111.5710 186° South 242 278 8,100 -100 Level FlightAware ADS-B
Wed 09:26:04 PM 33.5260 -111.5750 186° South 246 283 8,000 -1,200 Descending FlightAware ADS-B
Wed 09:26:34 PM 33.4910 -111.5790 185° South 244 281 7,000 -1,855 Descending FlightAware ADS-B
Wed 09:26:59 PM 33.4660 -111.5860 193° South 239 275 6,300 -1,200 Descending FlightAware ADS-B
Wed 09:27:09 PM 33.4600 -111.5910 215° Southwest 237 273 6,300 -327 Level FlightAware ADS-B
Wed 09:27:54 PM 33.4250 -111.6390 229° Southwest 233 268 6,000 -300 Descending FlightAware ADS-B
Wed 09:28:09 PM 33.4180 -111.6540 241° Southwest 232 267 6,000 -933 Level FlightAware ADS-B
Wed 09:28:39 PM 33.4050 -111.6910 247° West 232 267 5,300 -1,200 Descending FlightAware ADS-B
Wed 09:28:54 PM 33.4080 -111.7100 281° West 223 257 5,100 -300 Descending FlightAware ADS-B
Wed 09:29:19 PM 33.4210 -111.7340 303° West 201 231 5,100 -109 Level FlightAware ADS-B
Wed 09:29:49 PM 33.4310 -111.7600 295° West 193 222 5,000 -600 Descending FlightAware ADS-B
Wed 09:30:19 PM 33.4280 -111.7960 264° West 198 228 4,500 -1,200 Descending FlightAware ADS-B
Wed 09:30:44 PM 33.4280 -111.8230 270° West 193 222 3,900 -1,091 Descending FlightAware ADS-B
Wed 09:31:14 PM 33.4290 -111.8530 272° West 166 191 3,500 -800 Descending FlightAware ADS-B
Wed 09:31:29 PM 33.4290 -111.8660 270° West 162 186 3,300 -764 Descending FlightAware ADS-B
Wed 09:32:09 PM 33.4290 -111.9000 270° West 159 183 2,800 -771 Descending FlightAware ADS-B
Wed 09:32:39 PM 33.4290 -111.9260 270° West 126 145 2,400 -764 Descending FlightAware ADS-B
Wed 09:33:04 PM 33.4290 -111.9410 270° West 117 135 2,100 -655 Descending FlightAware ADS-B
Wed 09:33:34 PM 33.4290 -111.9630 270° West 117 135 1,800 -545 Descending FlightAware ADS-B
Wed 09:33:59 PM 33.4290 -111.9780 270° West 122 140 1,600 -300 Descending FlightAware ADS-B
Wed 09:34:34 PM 33.4290 -111.9990 270° West 120 138 1,500 -171 Descending FlightAware ADS-B

Login

Don't have an account? Register now (free) for customized features, flight alerts, and more!